sensor_id;sensor_type;location;lat;lon;timestamp;P1;durP1;ratioP1;P2;durP2;ratioP2
25717;SDS011;13574;52.040;5.692;2023-07-13T00:02:10;6.95;;;2.13;;
25717;SDS011;13574;52.040;5.692;2023-07-13T00:04:39;8.88;;;2.03;;
25717;SDS011;13574;52.040;5.692;2023-07-13T00:07:10;12.10;;;2.78;;
25717;SDS011;13574;52.040;5.692;2023-07-13T00:09:38;7.68;;;2.20;;
25717;SDS011;13574;52.040;5.692;2023-07-13T00:15:17;6.10;;;2.22;;
25717;SDS011;13574;52.040;5.692;2023-07-13T00:18:03;6.60;;;2.05;;
25717;SDS011;13574;52.040;5.692;2023-07-13T00:20:31;6.82;;;2.53;;
25717;SDS011;13574;52.040;5.692;2023-07-13T00:23:20;5.68;;;2.22;;
25717;SDS011;13574;52.040;5.692;2023-07-13T00:25:54;5.43;;;1.80;;
25717;SDS011;13574;52.040;5.692;2023-07-13T00:28:21;8.43;;;2.28;;
25717;SDS011;13574;52.040;5.692;2023-07-13T00:30:50;6.43;;;2.30;;
25717;SDS011;13574;52.040;5.692;2023-07-13T00:33:19;5.93;;;2.10;;
25717;SDS011;13574;52.040;5.692;2023-07-13T00:35:50;6.50;;;1.90;;
25717;SDS011;13574;52.040;5.692;2023-07-13T00:38:33;9.15;;;2.42;;
25717;SDS011;13574;52.040;5.692;2023-07-13T00:41:02;6.25;;;2.20;;
25717;SDS011;13574;52.040;5.692;2023-07-13T00:43:50;8.90;;;2.30;;
25717;SDS011;13574;52.040;5.692;2023-07-13T00:46:39;4.68;;;2.08;;
25717;SDS011;13574;52.040;5.692;2023-07-13T00:49:20;7.50;;;2.13;;
25717;SDS011;13574;52.040;5.692;2023-07-13T00:51:58;5.97;;;2.30;;
25717;SDS011;13574;52.040;5.692;2023-07-13T00:54:35;6.28;;;2.20;;
25717;SDS011;13574;52.040;5.692;2023-07-13T00:57:15;7.38;;;2.13;;
25717;SDS011;13574;52.040;5.692;2023-07-13T00:59:45;8.20;;;2.17;;
25717;SDS011;13574;52.040;5.692;2023-07-13T01:02:19;7.93;;;2.15;;
25717;SDS011;13574;52.040;5.692;2023-07-13T01:04:52;7.10;;;2.00;;
25717;SDS011;13574;52.040;5.692;2023-07-13T01:07:18;7.07;;;2.20;;
25717;SDS011;13574;52.040;5.692;2023-07-13T01:09:44;8.38;;;2.30;;
25717;SDS011;13574;52.040;5.692;2023-07-13T01:12:12;6.70;;;2.30;;
25717;SDS011;13574;52.040;5.692;2023-07-13T01:14:38;5.80;;;2.00;;
25717;SDS011;13574;52.040;5.692;2023-07-13T01:17:08;7.38;;;2.30;;
25717;SDS011;13574;52.040;5.692;2023-07-13T01:19:44;5.97;;;1.80;;
25717;SDS011;13574;52.040;5.692;2023-07-13T01:22:14;7.00;;;2.33;;
25717;SDS011;13574;52.040;5.692;2023-07-13T01:24:45;5.45;;;2.05;;
25717;SDS011;13574;52.040;5.692;2023-07-13T01:27:14;6.85;;;2.30;;
25717;SDS011;13574;52.040;5.692;2023-07-13T01:29:44;7.50;;;2.00;;
25717;SDS011;13574;52.040;5.692;2023-07-13T01:32:15;7.15;;;2.30;;
25717;SDS011;13574;52.040;5.692;2023-07-13T01:34:59;5.65;;;1.88;;
25717;SDS011;13574;52.040;5.692;2023-07-13T01:37:35;6.13;;;1.80;;
25717;SDS011;13574;52.040;5.692;2023-07-13T01:40:03;6.53;;;2.55;;
25717;SDS011;13574;52.040;5.692;2023-07-13T01:42:29;8.07;;;1.85;;
25717;SDS011;13574;52.040;5.692;2023-07-13T01:44:57;7.13;;;2.00;;
25717;SDS011;13574;52.040;5.692;2023-07-13T01:47:26;4.82;;;2.00;;
25717;SDS011;13574;52.040;5.692;2023-07-13T01:50:00;6.82;;;1.77;;
25717;SDS011;13574;52.040;5.692;2023-07-13T01:52:35;3.58;;;1.52;;
25717;SDS011;13574;52.040;5.692;2023-07-13T01:55:21;4.85;;;2.17;;
25717;SDS011;13574;52.040;5.692;2023-07-13T01:57:50;5.45;;;1.88;;
25717;SDS011;13574;52.040;5.692;2023-07-13T02:00:20;7.85;;;2.30;;
25717;SDS011;13574;52.040;5.692;2023-07-13T02:03:21;7.65;;;2.20;;
25717;SDS011;13574;52.040;5.692;2023-07-13T02:05:49;4.45;;;1.90;;
25717;SDS011;13574;52.040;5.692;2023-07-13T02:08:17;9.25;;;2.13;;
25717;SDS011;13574;52.040;5.692;2023-07-13T02:10:56;6.22;;;2.50;;
25717;SDS011;13574;52.040;5.692;2023-07-13T02:13:31;6.45;;;2.30;;
25717;SDS011;13574;52.040;5.692;2023-07-13T02:16:04;9.20;;;2.22;;
25717;SDS011;13574;52.040;5.692;2023-07-13T02:18:32;7.93;;;2.20;;
25717;SDS011;13574;52.040;5.692;2023-07-13T02:21:01;4.57;;;2.13;;
25717;SDS011;13574;52.040;5.692;2023-07-13T02:23:35;10.25;;;2.63;;
25717;SDS011;13574;52.040;5.692;2023-07-13T02:26:01;6.70;;;2.22;;
25717;SDS011;13574;52.040;5.692;2023-07-13T02:28:35;8.38;;;2.45;;
25717;SDS011;13574;52.040;5.692;2023-07-13T02:31:12;7.80;;;2.65;;
25717;SDS011;13574;52.040;5.692;2023-07-13T02:33:43;6.00;;;2.10;;
25717;SDS011;13574;52.040;5.692;2023-07-13T02:36:16;7.60;;;2.35;;
25717;SDS011;13574;52.040;5.692;2023-07-13T02:38:55;8.43;;;2.45;;
25717;SDS011;13574;52.040;5.692;2023-07-13T02:41:27;6.65;;;2.22;;
25717;SDS011;13574;52.040;5.692;2023-07-13T02:43:55;6.80;;;2.30;;
25717;SDS011;13574;52.040;5.692;2023-07-13T02:46:35;6.80;;;2.25;;
25717;SDS011;13574;52.040;5.692;2023-07-13T02:49:02;4.95;;;2.50;;
25717;SDS011;13574;52.040;5.692;2023-07-13T02:51:31;6.57;;;2.63;;
25717;SDS011;13574;52.040;5.692;2023-07-13T02:54:05;5.28;;;2.20;;
25717;SDS011;13574;52.040;5.692;2023-07-13T02:56:33;8.25;;;2.50;;
25717;SDS011;13574;52.040;5.692;2023-07-13T02:59:10;4.72;;;2.40;;
25717;SDS011;13574;52.040;5.692;2023-07-13T03:01:36;8.23;;;3.10;;
25717;SDS011;13574;52.040;5.692;2023-07-13T03:04:25;7.60;;;2.75;;
25717;SDS011;13574;52.040;5.692;2023-07-13T03:06:53;8.90;;;3.30;;
25717;SDS011;13574;52.040;5.692;2023-07-13T03:09:22;9.70;;;2.80;;
25717;SDS011;13574;52.040;5.692;2023-07-13T03:11:54;12.90;;;2.88;;
25717;SDS011;13574;52.040;5.692;2023-07-13T03:14:25;7.10;;;2.85;;
25717;SDS011;13574;52.040;5.692;2023-07-13T03:16:53;6.70;;;2.47;;
25717;SDS011;13574;52.040;5.692;2023-07-13T03:19:27;7.60;;;2.42;;
25717;SDS011;13574;52.040;5.692;2023-07-13T03:22:01;7.95;;;2.97;;
25717;SDS011;13574;52.040;5.692;2023-07-13T03:24:43;7.50;;;2.92;;
25717;SDS011;13574;52.040;5.692;2023-07-13T03:27:14;8.45;;;3.13;;
25717;SDS011;13574;52.040;5.692;2023-07-13T03:29:50;7.13;;;3.05;;
25717;SDS011;13574;52.040;5.692;2023-07-13T03:34:59;9.48;;;2.78;;
25717;SDS011;13574;52.040;5.692;2023-07-13T03:37:34;8.93;;;3.15;;
25717;SDS011;13574;52.040;5.692;2023-07-13T03:40:10;7.97;;;2.95;;
25717;SDS011;13574;52.040;5.692;2023-07-13T03:42:41;9.07;;;3.20;;
25717;SDS011;13574;52.040;5.692;2023-07-13T03:45:09;9.43;;;2.83;;
25717;SDS011;13574;52.040;5.692;2023-07-13T03:47:47;8.73;;;3.58;;
25717;SDS011;13574;52.040;5.692;2023-07-13T03:50:23;9.13;;;3.10;;
25717;SDS011;13574;52.040;5.692;2023-07-13T03:52:49;10.48;;;3.40;;
25717;SDS011;13574;52.040;5.692;2023-07-13T03:55:14;8.40;;;4.18;;
25717;SDS011;13574;52.040;5.692;2023-07-13T03:57:42;10.35;;;3.25;;
25717;SDS011;13574;52.040;5.692;2023-07-13T04:00:08;9.48;;;3.05;;
25717;SDS011;13574;52.040;5.692;2023-07-13T04:02:36;10.98;;;4.20;;
25717;SDS011;13574;52.040;5.692;2023-07-13T04:05:14;8.98;;;3.83;;
25717;SDS011;13574;52.040;5.692;2023-07-13T04:07:49;9.35;;;3.38;;
25717;SDS011;13574;52.040;5.692;2023-07-13T04:10:15;11.25;;;3.60;;
25717;SDS011;13574;52.040;5.692;2023-07-13T04:12:41;12.35;;;3.10;;
25717;SDS011;13574;52.040;5.692;2023-07-13T04:15:16;10.15;;;4.55;;
25717;SDS011;13574;52.040;5.692;2023-07-13T04:17:48;10.55;;;3.85;;
25717;SDS011;13574;52.040;5.692;2023-07-13T04:20:16;9.73;;;3.72;;
25717;SDS011;13574;52.040;5.692;2023-07-13T04:22:42;16.95;;;3.60;;
25717;SDS011;13574;52.040;5.692;2023-07-13T04:25:08;8.93;;;3.58;;
25717;SDS011;13574;52.040;5.692;2023-07-13T04:27:39;8.32;;;3.80;;
25717;SDS011;13574;52.040;5.692;2023-07-13T04:30:05;7.70;;;3.65;;
25717;SDS011;13574;52.040;5.692;2023-07-13T04:32:39;15.25;;;4.50;;
25717;SDS011;13574;52.040;5.692;2023-07-13T04:35:15;12.98;;;4.55;;
25717;SDS011;13574;52.040;5.692;2023-07-13T04:37:45;10.07;;;4.20;;
25717;SDS011;13574;52.040;5.692;2023-07-13T04:40:12;10.75;;;4.25;;
25717;SDS011;13574;52.040;5.692;2023-07-13T04:42:38;8.65;;;3.58;;
25717;SDS011;13574;52.040;5.692;2023-07-13T04:45:13;10.38;;;4.10;;
25717;SDS011;13574;52.040;5.692;2023-07-13T04:47:54;9.50;;;4.20;;
25717;SDS011;13574;52.040;5.692;2023-07-13T04:50:20;10.98;;;4.50;;
25717;SDS011;13574;52.040;5.692;2023-07-13T04:56:08;12.60;;;4.50;;
25717;SDS011;13574;52.040;5.692;2023-07-13T04:58:38;12.20;;;4.93;;
25717;SDS011;13574;52.040;5.692;2023-07-13T05:01:05;10.63;;;4.43;;
25717;SDS011;13574;52.040;5.692;2023-07-13T05:03:32;13.98;;;5.13;;
25717;SDS011;13574;52.040;5.692;2023-07-13T05:06:00;10.98;;;4.75;;
25717;SDS011;13574;52.040;5.692;2023-07-13T05:08:28;15.55;;;4.93;;
25717;SDS011;13574;52.040;5.692;2023-07-13T05:26:23;16.53;;;5.93;;
25717;SDS011;13574;52.040;5.692;2023-07-13T05:28:49;15.48;;;5.53;;
25717;SDS011;13574;52.040;5.692;2023-07-13T05:31:27;15.13;;;5.47;;
25717;SDS011;13574;52.040;5.692;2023-07-13T05:34:02;14.32;;;6.03;;
25717;SDS011;13574;52.040;5.692;2023-07-13T05:36:31;14.88;;;5.75;;
25717;SDS011;13574;52.040;5.692;2023-07-13T05:38:57;19.20;;;6.20;;
25717;SDS011;13574;52.040;5.692;2023-07-13T05:41:23;15.63;;;5.75;;
25717;SDS011;13574;52.040;5.692;2023-07-13T05:43:48;15.65;;;4.88;;
25717;SDS011;13574;52.040;5.692;2023-07-13T05:46:14;11.50;;;6.05;;
25717;SDS011;13574;52.040;5.692;2023-07-13T05:48:40;16.35;;;7.15;;
25717;SDS011;13574;52.040;5.692;2023-07-13T05:51:06;14.75;;;6.97;;
25717;SDS011;13574;52.040;5.692;2023-07-13T05:53:32;11.55;;;6.18;;
25717;SDS011;13574;52.040;5.692;2023-07-13T05:56:20;19.98;;;6.78;;
25717;SDS011;13574;52.040;5.692;2023-07-13T05:59:17;15.95;;;6.68;;
25717;SDS011;13574;52.040;5.692;2023-07-13T06:02:05;19.33;;;6.57;;
25717;SDS011;13574;52.040;5.692;2023-07-13T06:07:45;20.55;;;7.32;;
25717;SDS011;13574;52.040;5.692;2023-07-13T06:48:22;23.13;;;11.90;;
25717;SDS011;13574;52.040;5.692;2023-07-13T06:50:50;22.48;;;11.65;;
25717;SDS011;13574;52.040;5.692;2023-07-13T06:53:21;22.58;;;12.52;;
25717;SDS011;13574;52.040;5.692;2023-07-13T06:55:54;24.58;;;12.57;;
25717;SDS011;13574;52.040;5.692;2023-07-13T06:58:43;20.63;;;10.80;;
25717;SDS011;13574;52.040;5.692;2023-07-13T07:01:13;22.90;;;11.70;;
25717;SDS011;13574;52.040;5.692;2023-07-13T07:03:42;23.45;;;11.73;;
25717;SDS011;13574;52.040;5.692;2023-07-13T07:06:16;21.23;;;11.80;;
25717;SDS011;13574;52.040;5.692;2023-07-13T07:08:49;25.17;;;13.25;;
25717;SDS011;13574;52.040;5.692;2023-07-13T07:11:19;23.13;;;12.48;;
25717;SDS011;13574;52.040;5.692;2023-07-13T07:13:51;25.52;;;11.85;;
25717;SDS011;13574;52.040;5.692;2023-07-13T07:16:21;24.95;;;12.18;;
25717;SDS011;13574;52.040;5.692;2023-07-13T07:18:49;23.27;;;12.63;;
25717;SDS011;13574;52.040;5.692;2023-07-13T07:21:15;22.33;;;11.93;;
25717;SDS011;13574;52.040;5.692;2023-07-13T07:23:41;22.20;;;13.25;;
25717;SDS011;13574;52.040;5.692;2023-07-13T07:26:12;25.15;;;11.95;;
25717;SDS011;13574;52.040;5.692;2023-07-13T07:28:46;24.08;;;13.13;;
25717;SDS011;13574;52.040;5.692;2023-07-13T07:31:14;24.58;;;13.20;;
25717;SDS011;13574;52.040;5.692;2023-07-13T07:33:43;24.55;;;13.38;;
25717;SDS011;13574;52.040;5.692;2023-07-13T07:36:17;20.85;;;12.23;;
25717;SDS011;13574;52.040;5.692;2023-07-13T07:38:48;22.42;;;12.77;;
25717;SDS011;13574;52.040;5.692;2023-07-13T07:44:29;23.80;;;12.63;;
25717;SDS011;13574;52.040;5.692;2023-07-13T07:47:09;24.48;;;12.85;;
25717;SDS011;13574;52.040;5.692;2023-07-13T07:49:57;18.02;;;12.50;;
25717;SDS011;13574;52.040;5.692;2023-07-13T07:52:59;24.23;;;12.23;;
25717;SDS011;13574;52.040;5.692;2023-07-13T07:55:50;21.60;;;12.80;;
25717;SDS011;13574;52.040;5.692;2023-07-13T07:58:27;22.23;;;12.88;;
25717;SDS011;13574;52.040;5.692;2023-07-13T08:01:05;18.90;;;11.75;;
25717;SDS011;13574;52.040;5.692;2023-07-13T08:06:25;18.63;;;11.35;;
25717;SDS011;13574;52.040;5.692;2023-07-13T08:08:53;19.05;;;11.20;;
25717;SDS011;13574;52.040;5.692;2023-07-13T08:14:44;14.93;;;9.45;;
25717;SDS011;13574;52.040;5.692;2023-07-13T08:17:37;83.55;;;18.02;;
25717;SDS011;13574;52.040;5.692;2023-07-13T08:20:26;15.05;;;9.02;;
25717;SDS011;13574;52.040;5.692;2023-07-13T08:22:57;13.02;;;8.43;;
25717;SDS011;13574;52.040;5.692;2023-07-13T08:25:25;20.35;;;9.95;;
25717;SDS011;13574;52.040;5.692;2023-07-13T08:27:58;21.63;;;11.50;;
25717;SDS011;13574;52.040;5.692;2023-07-13T08:30:31;23.00;;;12.50;;
25717;SDS011;13574;52.040;5.692;2023-07-13T08:33:24;20.38;;;11.05;;
25717;SDS011;13574;52.040;5.692;2023-07-13T08:39:05;21.88;;;11.13;;
25717;SDS011;13574;52.040;5.692;2023-07-13T08:41:33;21.02;;;10.10;;
25717;SDS011;13574;52.040;5.692;2023-07-13T08:44:04;15.52;;;9.90;;
25717;SDS011;13574;52.040;5.692;2023-07-13T08:46:52;14.70;;;9.05;;
25717;SDS011;13574;52.040;5.692;2023-07-13T08:49:26;15.35;;;9.25;;
25717;SDS011;13574;52.040;5.692;2023-07-13T08:52:06;14.35;;;10.07;;
25717;SDS011;13574;52.040;5.692;2023-07-13T08:55:09;17.95;;;8.43;;
25717;SDS011;13574;52.040;5.692;2023-07-13T08:58:10;12.40;;;7.03;;
25717;SDS011;13574;52.040;5.692;2023-07-13T09:04:20;15.82;;;5.57;;
25717;SDS011;13574;52.040;5.692;2023-07-13T09:06:58;9.20;;;4.63;;
25717;SDS011;13574;52.040;5.692;2023-07-13T09:15:26;7.40;;;3.53;;
25717;SDS011;13574;52.040;5.692;2023-07-13T09:23:04;10.30;;;3.55;;
25717;SDS011;13574;52.040;5.692;2023-07-13T09:25:39;7.15;;;2.92;;
25717;SDS011;13574;52.040;5.692;2023-07-13T09:31:06;9.60;;;4.00;;
25717;SDS011;13574;52.040;5.692;2023-07-13T09:33:42;8.77;;;3.72;;
25717;SDS011;13574;52.040;5.692;2023-07-13T09:36:21;6.60;;;3.35;;
25717;SDS011;13574;52.040;5.692;2023-07-13T09:44:30;5.47;;;2.25;;
25717;SDS011;13574;52.040;5.692;2023-07-13T09:47:15;8.25;;;2.60;;
25717;SDS011;13574;52.040;5.692;2023-07-13T09:50:16;9.30;;;3.28;;
25717;SDS011;13574;52.040;5.692;2023-07-13T09:52:49;5.72;;;2.63;;
25717;SDS011;13574;52.040;5.692;2023-07-13T09:58:29;6.35;;;3.10;;
25717;SDS011;13574;52.040;5.692;2023-07-13T10:01:04;7.53;;;3.42;;
25717;SDS011;13574;52.040;5.692;2023-07-13T10:03:34;11.38;;;3.38;;
25717;SDS011;13574;52.040;5.692;2023-07-13T10:06:45;8.68;;;4.15;;
25717;SDS011;13574;52.040;5.692;2023-07-13T10:09:22;10.13;;;3.80;;
25717;SDS011;13574;52.040;5.692;2023-07-13T10:11:58;6.50;;;3.55;;
25717;SDS011;13574;52.040;5.692;2023-07-13T10:14:27;9.25;;;3.53;;
25717;SDS011;13574;52.040;5.692;2023-07-13T10:17:04;6.05;;;3.20;;
25717;SDS011;13574;52.040;5.692;2023-07-13T10:19:40;8.75;;;3.40;;
25717;SDS011;13574;52.040;5.692;2023-07-13T10:22:27;7.60;;;3.80;;
25717;SDS011;13574;52.040;5.692;2023-07-13T10:25:12;8.30;;;3.92;;
25717;SDS011;13574;52.040;5.692;2023-07-13T10:27:44;8.52;;;4.22;;
25717;SDS011;13574;52.040;5.692;2023-07-13T10:30:31;8.85;;;3.80;;
25717;SDS011;13574;52.040;5.692;2023-07-13T10:33:10;6.78;;;3.50;;
25717;SDS011;13574;52.040;5.692;2023-07-13T10:35:48;7.82;;;3.55;;
25717;SDS011;13574;52.040;5.692;2023-07-13T10:38:22;5.32;;;3.40;;
25717;SDS011;13574;52.040;5.692;2023-07-13T10:41:03;6.18;;;3.40;;
25717;SDS011;13574;52.040;5.692;2023-07-13T10:43:41;6.25;;;3.17;;
25717;SDS011;13574;52.040;5.692;2023-07-13T10:46:19;8.90;;;3.50;;
25717;SDS011;13574;52.040;5.692;2023-07-13T10:49:00;7.13;;;2.97;;
25717;SDS011;13574;52.040;5.692;2023-07-13T10:51:37;7.65;;;3.15;;
25717;SDS011;13574;52.040;5.692;2023-07-13T10:56:40;7.13;;;2.63;;
25717;SDS011;13574;52.040;5.692;2023-07-13T11:02:10;5.60;;;2.50;;
25717;SDS011;13574;52.040;5.692;2023-07-13T11:04:52;4.93;;;2.25;;
25717;SDS011;13574;52.040;5.692;2023-07-13T11:08:02;4.18;;;2.28;;
25717;SDS011;13574;52.040;5.692;2023-07-13T11:17:25;5.75;;;2.80;;
25717;SDS011;13574;52.040;5.692;2023-07-13T11:20:18;4.88;;;2.78;;
25717;SDS011;13574;52.040;5.692;2023-07-13T11:26:00;4.88;;;2.80;;
25717;SDS011;13574;52.040;5.692;2023-07-13T11:28:35;5.43;;;2.83;;
25717;SDS011;13574;52.040;5.692;2023-07-13T11:31:10;5.60;;;2.85;;
25717;SDS011;13574;52.040;5.692;2023-07-13T11:33:53;6.80;;;2.70;;
25717;SDS011;13574;52.040;5.692;2023-07-13T11:36:29;5.93;;;3.08;;
25717;SDS011;13574;52.040;5.692;2023-07-13T11:42:14;7.00;;;2.45;;
25717;SDS011;13574;52.040;5.692;2023-07-13T11:44:46;4.63;;;2.78;;
25717;SDS011;13574;52.040;5.692;2023-07-13T11:47:19;6.07;;;2.50;;
25717;SDS011;13574;52.040;5.692;2023-07-13T11:49:51;7.43;;;3.33;;
25717;SDS011;13574;52.040;5.692;2023-07-13T11:52:55;5.97;;;2.70;;
25717;SDS011;13574;52.040;5.692;2023-07-13T11:55:23;5.10;;;2.80;;
25717;SDS011;13574;52.040;5.692;2023-07-13T12:00:32;5.80;;;2.95;;
25717;SDS011;13574;52.040;5.692;2023-07-13T12:02:59;5.07;;;2.70;;
25717;SDS011;13574;52.040;5.692;2023-07-13T12:05:33;5.10;;;3.00;;
25717;SDS011;13574;52.040;5.692;2023-07-13T12:08:09;5.38;;;3.17;;
25717;SDS011;13574;52.040;5.692;2023-07-13T12:10:42;7.32;;;3.03;;
25717;SDS011;13574;52.040;5.692;2023-07-13T12:13:10;6.78;;;3.00;;
25717;SDS011;13574;52.040;5.692;2023-07-13T12:15:52;6.68;;;2.78;;
25717;SDS011;13574;52.040;5.692;2023-07-13T12:18:22;7.50;;;3.28;;
25717;SDS011;13574;52.040;5.692;2023-07-13T12:21:12;7.65;;;3.20;;
25717;SDS011;13574;52.040;5.692;2023-07-13T12:26:14;4.05;;;2.38;;
25717;SDS011;13574;52.040;5.692;2023-07-13T12:31:39;5.75;;;2.47;;
25717;SDS011;13574;52.040;5.692;2023-07-13T12:34:09;6.68;;;2.63;;
25717;SDS011;13574;52.040;5.692;2023-07-13T12:45:01;4.93;;;2.78;;
25717;SDS011;13574;52.040;5.692;2023-07-13T12:47:53;9.05;;;4.53;;
25717;SDS011;13574;52.040;5.692;2023-07-13T12:50:27;7.03;;;3.80;;
25717;SDS011;13574;52.040;5.692;2023-07-13T12:52:59;6.25;;;3.53;;
25717;SDS011;13574;52.040;5.692;2023-07-13T12:55:55;6.68;;;4.00;;
25717;SDS011;13574;52.040;5.692;2023-07-13T12:58:29;7.35;;;3.95;;
25717;SDS011;13574;52.040;5.692;2023-07-13T13:01:17;7.50;;;4.20;;
25717;SDS011;13574;52.040;5.692;2023-07-13T13:03:49;8.45;;;4.18;;
25717;SDS011;13574;52.040;5.692;2023-07-13T13:06:28;8.73;;;4.40;;
25717;SDS011;13574;52.040;5.692;2023-07-13T13:08:59;7.53;;;4.22;;
25717;SDS011;13574;52.040;5.692;2023-07-13T13:11:37;7.88;;;3.55;;
25717;SDS011;13574;52.040;5.692;2023-07-13T13:14:06;8.38;;;3.75;;
25717;SDS011;13574;52.040;5.692;2023-07-13T13:16:34;6.95;;;3.45;;
25717;SDS011;13574;52.040;5.692;2023-07-13T13:19:18;7.00;;;3.20;;
25717;SDS011;13574;52.040;5.692;2023-07-13T13:22:09;7.88;;;3.35;;
25717;SDS011;13574;52.040;5.692;2023-07-13T13:24:52;8.38;;;3.50;;
25717;SDS011;13574;52.040;5.692;2023-07-13T13:27:21;9.65;;;3.50;;
25717;SDS011;13574;52.040;5.692;2023-07-13T13:29:54;4.65;;;3.30;;
25717;SDS011;13574;52.040;5.692;2023-07-13T13:32:25;6.43;;;3.17;;
25717;SDS011;13574;52.040;5.692;2023-07-13T13:34:55;6.35;;;2.92;;
25717;SDS011;13574;52.040;5.692;2023-07-13T13:37:27;5.72;;;3.15;;
25717;SDS011;13574;52.040;5.692;2023-07-13T13:39:56;7.35;;;3.03;;
25717;SDS011;13574;52.040;5.692;2023-07-13T13:42:25;5.00;;;3.00;;
25717;SDS011;13574;52.040;5.692;2023-07-13T13:47:31;5.95;;;3.03;;
25717;SDS011;13574;52.040;5.692;2023-07-13T13:49:58;7.50;;;3.05;;
25717;SDS011;13574;52.040;5.692;2023-07-13T13:52:29;5.80;;;2.80;;
25717;SDS011;13574;52.040;5.692;2023-07-13T13:54:55;3.72;;;2.58;;
25717;SDS011;13574;52.040;5.692;2023-07-13T13:57:31;5.88;;;2.75;;
25717;SDS011;13574;52.040;5.692;2023-07-13T14:00:11;4.00;;;2.40;;
25717;SDS011;13574;52.040;5.692;2023-07-13T14:02:47;4.35;;;2.63;;
25717;SDS011;13574;52.040;5.692;2023-07-13T14:05:29;7.28;;;2.60;;
25717;SDS011;13574;52.040;5.692;2023-07-13T14:07:57;6.75;;;2.65;;
25717;SDS011;13574;52.040;5.692;2023-07-13T14:10:32;4.82;;;2.53;;
25717;SDS011;13574;52.040;5.692;2023-07-13T14:13:01;6.35;;;2.70;;
25717;SDS011;13574;52.040;5.692;2023-07-13T14:15:32;4.90;;;2.50;;
25717;SDS011;13574;52.040;5.692;2023-07-13T14:20:29;4.72;;;2.45;;
25717;SDS011;13574;52.040;5.692;2023-07-13T14:22:58;5.15;;;2.45;;
25717;SDS011;13574;52.040;5.692;2023-07-13T14:25:51;5.68;;;2.83;;
25717;SDS011;13574;52.040;5.692;2023-07-13T14:30:52;5.65;;;2.47;;
25717;SDS011;13574;52.040;5.692;2023-07-13T14:33:20;4.55;;;2.78;;
25717;SDS011;13574;52.040;5.692;2023-07-13T14:35:49;4.20;;;3.00;;
25717;SDS011;13574;52.040;5.692;2023-07-13T14:38:20;7.13;;;6.05;;
25717;SDS011;13574;52.040;5.692;2023-07-13T14:40:48;4.97;;;3.42;;
25717;SDS011;13574;52.040;5.692;2023-07-13T14:43:17;8.75;;;4.78;;
25717;SDS011;13574;52.040;5.692;2023-07-13T14:45:47;10.15;;;7.45;;
25717;SDS011;13574;52.040;5.692;2023-07-13T14:48:23;4.47;;;3.17;;
25717;SDS011;13574;52.040;5.692;2023-07-13T14:50:56;14.63;;;13.13;;
25717;SDS011;13574;52.040;5.692;2023-07-13T14:53:33;10.68;;;8.65;;
25717;SDS011;13574;52.040;5.692;2023-07-13T14:56:11;7.35;;;4.90;;
25717;SDS011;13574;52.040;5.692;2023-07-13T14:58:40;13.18;;;8.52;;
25717;SDS011;13574;52.040;5.692;2023-07-13T15:01:14;8.07;;;4.40;;
25717;SDS011;13574;52.040;5.692;2023-07-13T15:03:47;26.63;;;18.45;;
25717;SDS011;13574;52.040;5.692;2023-07-13T15:06:19;17.30;;;15.60;;
25717;SDS011;13574;52.040;5.692;2023-07-13T15:08:50;9.43;;;5.72;;
25717;SDS011;13574;52.040;5.692;2023-07-13T15:11:21;8.80;;;4.72;;
25717;SDS011;13574;52.040;5.692;2023-07-13T15:13:50;5.88;;;3.78;;
25717;SDS011;13574;52.040;5.692;2023-07-13T15:16:20;4.80;;;2.80;;
25717;SDS011;13574;52.040;5.692;2023-07-13T15:18:50;6.55;;;2.95;;
25717;SDS011;13574;52.040;5.692;2023-07-13T15:21:25;6.63;;;3.83;;
25717;SDS011;13574;52.040;5.692;2023-07-13T15:23:59;26.40;;;22.10;;
25717;SDS011;13574;52.040;5.692;2023-07-13T15:26:28;8.60;;;7.65;;
25717;SDS011;13574;52.040;5.692;2023-07-13T15:28:55;11.43;;;8.95;;
25717;SDS011;13574;52.040;5.692;2023-07-13T15:31:21;26.52;;;22.70;;
25717;SDS011;13574;52.040;5.692;2023-07-13T15:34:07;12.60;;;7.18;;
25717;SDS011;13574;52.040;5.692;2023-07-13T15:36:39;15.48;;;10.98;;
25717;SDS011;13574;52.040;5.692;2023-07-13T15:39:08;9.48;;;3.85;;
25717;SDS011;13574;52.040;5.692;2023-07-13T15:41:41;9.57;;;5.28;;
25717;SDS011;13574;52.040;5.692;2023-07-13T15:44:22;6.65;;;3.78;;
25717;SDS011;13574;52.040;5.692;2023-07-13T15:46:53;5.68;;;3.55;;
25717;SDS011;13574;52.040;5.692;2023-07-13T15:49:28;7.65;;;4.18;;
25717;SDS011;13574;52.040;5.692;2023-07-13T15:51:54;6.93;;;3.95;;
25717;SDS011;13574;52.040;5.692;2023-07-13T15:54:25;6.40;;;3.63;;
25717;SDS011;13574;52.040;5.692;2023-07-13T15:59:19;8.50;;;3.53;;
25717;SDS011;13574;52.040;5.692;2023-07-13T16:01:45;5.80;;;3.22;;
25717;SDS011;13574;52.040;5.692;2023-07-13T16:04:14;3.10;;;2.30;;
25717;SDS011;13574;52.040;5.692;2023-07-13T16:06:50;6.80;;;2.53;;
25717;SDS011;13574;52.040;5.692;2023-07-13T16:09:19;5.28;;;2.63;;
25717;SDS011;13574;52.040;5.692;2023-07-13T16:11:48;5.93;;;2.90;;
25717;SDS011;13574;52.040;5.692;2023-07-13T16:14:14;7.10;;;2.88;;
25717;SDS011;13574;52.040;5.692;2023-07-13T16:16:41;14.05;;;7.47;;
25717;SDS011;13574;52.040;5.692;2023-07-13T16:19:08;8.27;;;4.22;;
25717;SDS011;13574;52.040;5.692;2023-07-13T16:21:39;93.35;;;49.55;;
25717;SDS011;13574;52.040;5.692;2023-07-13T16:24:32;72.72;;;41.65;;
25717;SDS011;13574;52.040;5.692;2023-07-13T16:27:22;58.03;;;30.63;;
25717;SDS011;13574;52.040;5.692;2023-07-13T16:30:12;47.65;;;26.20;;
25717;SDS011;13574;52.040;5.692;2023-07-13T16:33:22;20.85;;;10.77;;
25717;SDS011;13574;52.040;5.692;2023-07-13T16:35:48;9.73;;;5.07;;
25717;SDS011;13574;52.040;5.692;2023-07-13T16:38:15;9.77;;;5.10;;
25717;SDS011;13574;52.040;5.692;2023-07-13T16:40:46;13.32;;;6.97;;
25717;SDS011;13574;52.040;5.692;2023-07-13T16:43:13;11.50;;;6.57;;
25717;SDS011;13574;52.040;5.692;2023-07-13T16:45:42;10.70;;;4.68;;
25717;SDS011;13574;52.040;5.692;2023-07-13T16:51:12;6.35;;;3.10;;
25717;SDS011;13574;52.040;5.692;2023-07-13T16:53:41;8.65;;;3.17;;
25717;SDS011;13574;52.040;5.692;2023-07-13T16:56:16;6.32;;;2.80;;
25717;SDS011;13574;52.040;5.692;2023-07-13T16:58:44;4.30;;;2.20;;
25717;SDS011;13574;52.040;5.692;2023-07-13T17:01:10;4.40;;;2.17;;
25717;SDS011;13574;52.040;5.692;2023-07-13T17:03:39;4.15;;;2.35;;
25717;SDS011;13574;52.040;5.692;2023-07-13T17:06:25;3.90;;;2.00;;
25717;SDS011;13574;52.040;5.692;2023-07-13T17:08:54;5.78;;;1.92;;
25717;SDS011;13574;52.040;5.692;2023-07-13T17:11:22;5.60;;;2.00;;
25717;SDS011;13574;52.040;5.692;2023-07-13T17:13:53;2.95;;;1.70;;
25717;SDS011;13574;52.040;5.692;2023-07-13T17:16:19;6.68;;;2.15;;
25717;SDS011;13574;52.040;5.692;2023-07-13T17:18:46;6.47;;;2.30;;
25717;SDS011;13574;52.040;5.692;2023-07-13T17:21:16;10.60;;;6.28;;
25717;SDS011;13574;52.040;5.692;2023-07-13T17:23:49;5.88;;;3.10;;
25717;SDS011;13574;52.040;5.692;2023-07-13T17:26:24;3.33;;;2.10;;
25717;SDS011;13574;52.040;5.692;2023-07-13T17:29:11;6.40;;;3.72;;
25717;SDS011;13574;52.040;5.692;2023-07-13T17:31:37;11.07;;;6.55;;
25717;SDS011;13574;52.040;5.692;2023-07-13T17:34:03;5.88;;;3.88;;
25717;SDS011;13574;52.040;5.692;2023-07-13T17:43:33;3.63;;;2.00;;
25717;SDS011;13574;52.040;5.692;2023-07-13T17:46:18;4.88;;;2.42;;
25717;SDS011;13574;52.040;5.692;2023-07-13T17:48:53;11.95;;;9.95;;
25717;SDS011;13574;52.040;5.692;2023-07-13T17:51:38;7.65;;;2.17;;
25717;SDS011;13574;52.040;5.692;2023-07-13T17:54:09;5.38;;;2.55;;
25717;SDS011;13574;52.040;5.692;2023-07-13T17:59:11;6.95;;;5.13;;
25717;SDS011;13574;52.040;5.692;2023-07-13T18:01:48;12.30;;;7.13;;
25717;SDS011;13574;52.040;5.692;2023-07-13T18:04:17;6.03;;;2.42;;